Terminal Aerodrome Forecast
Issued by NWS

Home | Current Version | Previous Version | Text Only | Print | Product List | Glossary On
Versions: 1 2 3 4 5 6 7 8 9 10 11 12 13 14 15 16 17 18
000
FTUS42 KFFC 251946 CCB
TAFRYY
TAF COR
KRYY 251946Z 2520/2618 26007KT P6SM -RA BKN040 OVC100
     FM260000 00000KT 6SM BR VCSH OVC015
     FM260500 02003KT 3SM -RA BR OVC009
     FM260900 02003KT 2SM -RA BR OVC005
     FM261500 04006KT P6SM VCSH OVC015=

USA.gov is the U.S. government's official web portal to all federal, state and local government web resources and services.